sensor_id;sensor_type;location;lat;lon;timestamp;P1;durP1;ratioP1;P2;durP2;ratioP2
34236;SDS011;20501;45.956;13.632;2023-02-15T00:00:53;38.47;;;22.25;;
34236;SDS011;20501;45.956;13.632;2023-02-15T00:03:21;41.45;;;23.40;;
34236;SDS011;20501;45.956;13.632;2023-02-15T00:05:47;41.80;;;22.20;;
34236;SDS011;20501;45.956;13.632;2023-02-15T00:08:12;32.83;;;20.75;;
34236;SDS011;20501;45.956;13.632;2023-02-15T00:10:37;38.50;;;21.75;;
34236;SDS011;20501;45.956;13.632;2023-02-15T00:13:03;38.92;;;21.20;;
34236;SDS011;20501;45.956;13.632;2023-02-15T00:15:28;39.35;;;20.40;;
34236;SDS011;20501;45.956;13.632;2023-02-15T00:17:54;38.53;;;20.77;;
34236;SDS011;20501;45.956;13.632;2023-02-15T00:20:21;40.47;;;20.50;;
34236;SDS011;20501;45.956;13.632;2023-02-15T00:22:46;37.83;;;19.42;;
34236;SDS011;20501;45.956;13.632;2023-02-15T00:25:12;34.20;;;19.20;;
34236;SDS011;20501;45.956;13.632;2023-02-15T00:27:37;33.97;;;19.08;;
34236;SDS011;20501;45.956;13.632;2023-02-15T00:30:03;31.60;;;18.50;;
34236;SDS011;20501;45.956;13.632;2023-02-15T00:32:28;30.63;;;18.88;;
34236;SDS011;20501;45.956;13.632;2023-02-15T00:34:54;31.75;;;17.40;;
34236;SDS011;20501;45.956;13.632;2023-02-15T00:37:19;29.92;;;16.35;;
34236;SDS011;20501;45.956;13.632;2023-02-15T00:39:44;32.53;;;16.83;;
34236;SDS011;20501;45.956;13.632;2023-02-15T00:42:10;28.80;;;16.65;;
34236;SDS011;20501;45.956;13.632;2023-02-15T00:44:35;26.00;;;15.48;;
34236;SDS011;20501;45.956;13.632;2023-02-15T00:47:01;26.77;;;14.82;;
34236;SDS011;20501;45.956;13.632;2023-02-15T00:49:26;24.83;;;15.38;;
34236;SDS011;20501;45.956;13.632;2023-02-15T00:51:51;29.88;;;15.65;;
34236;SDS011;20501;45.956;13.632;2023-02-15T00:54:17;33.05;;;16.75;;
34236;SDS011;20501;45.956;13.632;2023-02-15T00:56:42;26.48;;;15.18;;
34236;SDS011;20501;45.956;13.632;2023-02-15T00:59:08;20.25;;;13.48;;
34236;SDS011;20501;45.956;13.632;2023-02-15T01:01:34;26.17;;;14.80;;
34236;SDS011;20501;45.956;13.632;2023-02-15T01:03:59;23.65;;;13.82;;
34236;SDS011;20501;45.956;13.632;2023-02-15T01:06:24;21.83;;;13.43;;
34236;SDS011;20501;45.956;13.632;2023-02-15T01:08:50;29.42;;;16.83;;
34236;SDS011;20501;45.956;13.632;2023-02-15T01:11:16;25.40;;;14.20;;
34236;SDS011;20501;45.956;13.632;2023-02-15T01:13:47;27.92;;;14.35;;
34236;SDS011;20501;45.956;13.632;2023-02-15T01:16:17;22.75;;;13.20;;
34236;SDS011;20501;45.956;13.632;2023-02-15T01:18:42;24.65;;;14.27;;
34236;SDS011;20501;45.956;13.632;2023-02-15T01:21:09;22.27;;;13.65;;
34236;SDS011;20501;45.956;13.632;2023-02-15T01:23:39;23.52;;;13.50;;
34236;SDS011;20501;45.956;13.632;2023-02-15T01:26:05;23.17;;;13.20;;
34236;SDS011;20501;45.956;13.632;2023-02-15T01:28:31;23.42;;;13.55;;
34236;SDS011;20501;45.956;13.632;2023-02-15T01:30:57;21.13;;;12.10;;
34236;SDS011;20501;45.956;13.632;2023-02-15T01:33:24;20.73;;;12.00;;
34236;SDS011;20501;45.956;13.632;2023-02-15T01:35:55;20.08;;;11.80;;
34236;SDS011;20501;45.956;13.632;2023-02-15T01:38:22;21.50;;;10.98;;
34236;SDS011;20501;45.956;13.632;2023-02-15T01:40:50;24.02;;;13.40;;
34236;SDS011;20501;45.956;13.632;2023-02-15T01:43:19;19.80;;;11.57;;
34236;SDS011;20501;45.956;13.632;2023-02-15T01:45:45;17.20;;;10.52;;
34236;SDS011;20501;45.956;13.632;2023-02-15T01:50:57;21.88;;;11.65;;
34236;SDS011;20501;45.956;13.632;2023-02-15T01:53:27;18.55;;;11.45;;
34236;SDS011;20501;45.956;13.632;2023-02-15T01:56:37;25.90;;;12.75;;
34236;SDS011;20501;45.956;13.632;2023-02-15T01:58:48;24.63;;;13.40;;
34236;SDS011;20501;45.956;13.632;2023-02-15T02:01:16;32.90;;;14.52;;
34236;SDS011;20501;45.956;13.632;2023-02-15T02:06:29;19.98;;;11.77;;
34236;SDS011;20501;45.956;13.632;2023-02-15T02:08:56;22.02;;;13.13;;
34236;SDS011;20501;45.956;13.632;2023-02-15T02:11:23;18.92;;;12.02;;
34236;SDS011;20501;45.956;13.632;2023-02-15T02:13:48;17.48;;;10.25;;
34236;SDS011;20501;45.956;13.632;2023-02-15T02:16:20;18.85;;;10.90;;
34236;SDS011;20501;45.956;13.632;2023-02-15T02:27:12;19.30;;;12.20;;
34236;SDS011;20501;45.956;13.632;2023-02-15T02:43:00;17.88;;;11.20;;
34236;SDS011;20501;45.956;13.632;2023-02-15T02:45:39;16.17;;;9.70;;
34236;SDS011;20501;45.956;13.632;2023-02-15T02:48:10;21.42;;;12.02;;
34236;SDS011;20501;45.956;13.632;2023-02-15T02:50:40;17.55;;;10.35;;
34236;SDS011;20501;45.956;13.632;2023-02-15T02:53:06;16.20;;;10.13;;
34236;SDS011;20501;45.956;13.632;2023-02-15T02:55:40;15.50;;;10.15;;
34236;SDS011;20501;45.956;13.632;2023-02-15T03:00:52;17.45;;;10.18;;
34236;SDS011;20501;45.956;13.632;2023-02-15T03:03:34;17.27;;;10.73;;
34236;SDS011;20501;45.956;13.632;2023-02-15T03:06:04;16.42;;;9.60;;
34236;SDS011;20501;45.956;13.632;2023-02-15T03:08:35;16.23;;;9.93;;
34236;SDS011;20501;45.956;13.632;2023-02-15T03:11:05;16.27;;;8.90;;
34236;SDS011;20501;45.956;13.632;2023-02-15T03:13:31;17.97;;;10.33;;
34236;SDS011;20501;45.956;13.632;2023-02-15T03:15:57;17.52;;;10.27;;
34236;SDS011;20501;45.956;13.632;2023-02-15T03:18:48;17.27;;;10.27;;
34236;SDS011;20501;45.956;13.632;2023-02-15T03:21:33;19.13;;;9.90;;
34236;SDS011;20501;45.956;13.632;2023-02-15T03:24:15;15.65;;;9.27;;
34236;SDS011;20501;45.956;13.632;2023-02-15T03:26:46;16.30;;;9.00;;
34236;SDS011;20501;45.956;13.632;2023-02-15T03:29:15;14.88;;;9.02;;
34236;SDS011;20501;45.956;13.632;2023-02-15T03:31:44;19.20;;;11.88;;
34236;SDS011;20501;45.956;13.632;2023-02-15T03:34:14;15.27;;;9.63;;
34236;SDS011;20501;45.956;13.632;2023-02-15T03:42:16;13.35;;;8.27;;
34236;SDS011;20501;45.956;13.632;2023-02-15T03:45:09;20.75;;;11.55;;
34236;SDS011;20501;45.956;13.632;2023-02-15T03:47:47;14.43;;;9.07;;
34236;SDS011;20501;45.956;13.632;2023-02-15T03:50:16;18.25;;;9.05;;
34236;SDS011;20501;45.956;13.632;2023-02-15T03:53:05;15.48;;;9.35;;
34236;SDS011;20501;45.956;13.632;2023-02-15T03:55:33;18.48;;;10.93;;
34236;SDS011;20501;45.956;13.632;2023-02-15T03:57:59;18.35;;;9.63;;
34236;SDS011;20501;45.956;13.632;2023-02-15T04:00:59;16.13;;;8.40;;
34236;SDS011;20501;45.956;13.632;2023-02-15T04:03:49;14.93;;;8.70;;
34236;SDS011;20501;45.956;13.632;2023-02-15T04:06:22;15.73;;;9.73;;
34236;SDS011;20501;45.956;13.632;2023-02-15T04:08:47;16.75;;;11.30;;
34236;SDS011;20501;45.956;13.632;2023-02-15T04:11:31;14.00;;;8.38;;
34236;SDS011;20501;45.956;13.632;2023-02-15T04:13:56;23.02;;;10.38;;
34236;SDS011;20501;45.956;13.632;2023-02-15T04:16:23;17.05;;;10.90;;
34236;SDS011;20501;45.956;13.632;2023-02-15T04:18:48;14.95;;;8.70;;
34236;SDS011;20501;45.956;13.632;2023-02-15T04:21:33;17.55;;;9.02;;
34236;SDS011;20501;45.956;13.632;2023-02-15T04:24:17;14.70;;;9.02;;
34236;SDS011;20501;45.956;13.632;2023-02-15T04:27:02;17.20;;;9.52;;
34236;SDS011;20501;45.956;13.632;2023-02-15T04:31:55;16.92;;;8.60;;
34236;SDS011;20501;45.956;13.632;2023-02-15T04:34:22;18.65;;;9.88;;
34236;SDS011;20501;45.956;13.632;2023-02-15T04:36:48;18.45;;;11.40;;
34236;SDS011;20501;45.956;13.632;2023-02-15T04:39:15;15.68;;;8.77;;
34236;SDS011;20501;45.956;13.632;2023-02-15T04:41:41;17.95;;;10.23;;
34236;SDS011;20501;45.956;13.632;2023-02-15T04:44:07;16.05;;;10.30;;
34236;SDS011;20501;45.956;13.632;2023-02-15T04:46:32;15.55;;;8.50;;
34236;SDS011;20501;45.956;13.632;2023-02-15T04:48:58;17.23;;;10.25;;
34236;SDS011;20501;45.956;13.632;2023-02-15T04:51:23;16.25;;;8.95;;
34236;SDS011;20501;45.956;13.632;2023-02-15T04:53:49;19.88;;;9.85;;
34236;SDS011;20501;45.956;13.632;2023-02-15T04:56:17;17.42;;;10.15;;
34236;SDS011;20501;45.956;13.632;2023-02-15T04:58:43;15.18;;;8.38;;
34236;SDS011;20501;45.956;13.632;2023-02-15T05:01:08;15.90;;;8.95;;
34236;SDS011;20501;45.956;13.632;2023-02-15T05:03:34;17.90;;;9.23;;
34236;SDS011;20501;45.956;13.632;2023-02-15T05:06:00;21.42;;;10.88;;
34236;SDS011;20501;45.956;13.632;2023-02-15T05:08:25;18.70;;;10.73;;
34236;SDS011;20501;45.956;13.632;2023-02-15T05:10:51;15.88;;;9.20;;
34236;SDS011;20501;45.956;13.632;2023-02-15T05:13:16;16.40;;;9.18;;
34236;SDS011;20501;45.956;13.632;2023-02-15T05:15:46;14.38;;;8.95;;
34236;SDS011;20501;45.956;13.632;2023-02-15T05:18:15;20.23;;;10.32;;
34236;SDS011;20501;45.956;13.632;2023-02-15T05:20:42;19.98;;;11.18;;
34236;SDS011;20501;45.956;13.632;2023-02-15T05:23:07;15.00;;;9.18;;
34236;SDS011;20501;45.956;13.632;2023-02-15T05:25:33;17.48;;;9.27;;
34236;SDS011;20501;45.956;13.632;2023-02-15T05:28:17;21.80;;;11.02;;
34236;SDS011;20501;45.956;13.632;2023-02-15T05:30:49;18.17;;;9.75;;
34236;SDS011;20501;45.956;13.632;2023-02-15T05:33:24;15.40;;;9.10;;
34236;SDS011;20501;45.956;13.632;2023-02-15T05:35:49;15.05;;;9.40;;
34236;SDS011;20501;45.956;13.632;2023-02-15T05:38:16;20.58;;;9.75;;
34236;SDS011;20501;45.956;13.632;2023-02-15T05:40:41;15.15;;;9.23;;
34236;SDS011;20501;45.956;13.632;2023-02-15T05:43:06;14.73;;;8.98;;
34236;SDS011;20501;45.956;13.632;2023-02-15T05:45:32;18.13;;;10.23;;
34236;SDS011;20501;45.956;13.632;2023-02-15T05:47:57;15.45;;;9.45;;
34236;SDS011;20501;45.956;13.632;2023-02-15T05:50:23;20.88;;;11.25;;
34236;SDS011;20501;45.956;13.632;2023-02-15T05:52:49;17.92;;;9.32;;
34236;SDS011;20501;45.956;13.632;2023-02-15T05:55:14;16.85;;;9.18;;
34236;SDS011;20501;45.956;13.632;2023-02-15T05:57:40;16.17;;;9.45;;
34236;SDS011;20501;45.956;13.632;2023-02-15T06:00:05;15.65;;;9.13;;
34236;SDS011;20501;45.956;13.632;2023-02-15T06:02:34;18.48;;;9.18;;
34236;SDS011;20501;45.956;13.632;2023-02-15T06:05:04;23.98;;;11.82;;
34236;SDS011;20501;45.956;13.632;2023-02-15T06:07:30;17.15;;;9.95;;
34236;SDS011;20501;45.956;13.632;2023-02-15T06:09:56;17.43;;;10.27;;
34236;SDS011;20501;45.956;13.632;2023-02-15T06:12:22;17.30;;;9.68;;
34236;SDS011;20501;45.956;13.632;2023-02-15T06:14:47;24.75;;;12.05;;
34236;SDS011;20501;45.956;13.632;2023-02-15T06:17:12;25.40;;;12.85;;
34236;SDS011;20501;45.956;13.632;2023-02-15T06:19:38;21.40;;;10.82;;
34236;SDS011;20501;45.956;13.632;2023-02-15T06:22:03;16.75;;;9.68;;
34236;SDS011;20501;45.956;13.632;2023-02-15T06:24:29;19.02;;;10.15;;
34236;SDS011;20501;45.956;13.632;2023-02-15T06:26:54;17.38;;;9.52;;
34236;SDS011;20501;45.956;13.632;2023-02-15T06:29:19;16.55;;;8.77;;
34236;SDS011;20501;45.956;13.632;2023-02-15T06:31:45;19.95;;;9.98;;
34236;SDS011;20501;45.956;13.632;2023-02-15T06:34:10;25.92;;;13.85;;
34236;SDS011;20501;45.956;13.632;2023-02-15T06:36:36;25.73;;;13.35;;
34236;SDS011;20501;45.956;13.632;2023-02-15T06:39:02;16.10;;;10.40;;
34236;SDS011;20501;45.956;13.632;2023-02-15T06:41:28;34.63;;;14.68;;
34236;SDS011;20501;45.956;13.632;2023-02-15T06:43:53;24.50;;;13.07;;
34236;SDS011;20501;45.956;13.632;2023-02-15T06:46:18;30.58;;;12.73;;
34236;SDS011;20501;45.956;13.632;2023-02-15T06:48:44;26.92;;;12.88;;
34236;SDS011;20501;45.956;13.632;2023-02-15T06:51:09;29.30;;;15.25;;
34236;SDS011;20501;45.956;13.632;2023-02-15T06:53:34;35.22;;;14.13;;
34236;SDS011;20501;45.956;13.632;2023-02-15T06:56:04;31.77;;;13.57;;
34236;SDS011;20501;45.956;13.632;2023-02-15T06:58:41;23.67;;;11.15;;
34236;SDS011;20501;45.956;13.632;2023-02-15T07:01:07;20.55;;;10.93;;
34236;SDS011;20501;45.956;13.632;2023-02-15T07:03:34;21.58;;;11.02;;
34236;SDS011;20501;45.956;13.632;2023-02-15T07:06:01;21.33;;;10.63;;
34236;SDS011;20501;45.956;13.632;2023-02-15T07:08:30;19.40;;;10.63;;
34236;SDS011;20501;45.956;13.632;2023-02-15T07:10:56;21.65;;;10.77;;
34236;SDS011;20501;45.956;13.632;2023-02-15T07:13:42;20.95;;;11.32;;
34236;SDS011;20501;45.956;13.632;2023-02-15T07:16:10;23.98;;;13.18;;
34236;SDS011;20501;45.956;13.632;2023-02-15T07:18:36;25.80;;;12.20;;
34236;SDS011;20501;45.956;13.632;2023-02-15T07:21:01;23.50;;;11.55;;
34236;SDS011;20501;45.956;13.632;2023-02-15T07:23:27;22.30;;;11.88;;
34236;SDS011;20501;45.956;13.632;2023-02-15T07:25:59;27.38;;;11.68;;
34236;SDS011;20501;45.956;13.632;2023-02-15T07:28:25;19.45;;;10.35;;
34236;SDS011;20501;45.956;13.632;2023-02-15T07:30:51;17.52;;;10.75;;
34236;SDS011;20501;45.956;13.632;2023-02-15T07:33:16;27.73;;;14.18;;
34236;SDS011;20501;45.956;13.632;2023-02-15T07:35:48;26.70;;;11.90;;
34236;SDS011;20501;45.956;13.632;2023-02-15T07:38:14;23.38;;;11.48;;
34236;SDS011;20501;45.956;13.632;2023-02-15T07:40:39;23.73;;;12.20;;
34236;SDS011;20501;45.956;13.632;2023-02-15T07:43:05;18.20;;;10.70;;
34236;SDS011;20501;45.956;13.632;2023-02-15T07:45:30;20.52;;;11.65;;
34236;SDS011;20501;45.956;13.632;2023-02-15T07:47:56;20.48;;;10.80;;
34236;SDS011;20501;45.956;13.632;2023-02-15T07:50:21;16.33;;;9.23;;
34236;SDS011;20501;45.956;13.632;2023-02-15T07:52:47;19.08;;;10.10;;
34236;SDS011;20501;45.956;13.632;2023-02-15T07:55:12;20.92;;;9.57;;
34236;SDS011;20501;45.956;13.632;2023-02-15T07:57:45;19.65;;;10.02;;
34236;SDS011;20501;45.956;13.632;2023-02-15T08:00:12;18.98;;;10.10;;
34236;SDS011;20501;45.956;13.632;2023-02-15T08:02:39;22.23;;;10.98;;
34236;SDS011;20501;45.956;13.632;2023-02-15T08:05:05;26.65;;;12.15;;
34236;SDS011;20501;45.956;13.632;2023-02-15T08:07:31;21.60;;;10.90;;
34236;SDS011;20501;45.956;13.632;2023-02-15T08:09:56;25.13;;;12.73;;
34236;SDS011;20501;45.956;13.632;2023-02-15T08:12:21;20.92;;;11.02;;
34236;SDS011;20501;45.956;13.632;2023-02-15T08:14:47;19.92;;;10.00;;
34236;SDS011;20501;45.956;13.632;2023-02-15T08:17:12;26.85;;;13.75;;
34236;SDS011;20501;45.956;13.632;2023-02-15T08:19:38;13.95;;;9.25;;
34236;SDS011;20501;45.956;13.632;2023-02-15T08:22:06;19.83;;;10.43;;
34236;SDS011;20501;45.956;13.632;2023-02-15T08:24:36;22.05;;;10.18;;
34236;SDS011;20501;45.956;13.632;2023-02-15T08:27:02;16.30;;;9.20;;
34236;SDS011;20501;45.956;13.632;2023-02-15T08:29:29;20.05;;;9.43;;
34236;SDS011;20501;45.956;13.632;2023-02-15T08:31:59;25.85;;;12.88;;
34236;SDS011;20501;45.956;13.632;2023-02-15T08:34:28;18.40;;;11.30;;
34236;SDS011;20501;45.956;13.632;2023-02-15T08:36:55;19.95;;;10.80;;
34236;SDS011;20501;45.956;13.632;2023-02-15T08:39:21;18.83;;;10.02;;
34236;SDS011;20501;45.956;13.632;2023-02-15T08:41:47;22.55;;;11.43;;
34236;SDS011;20501;45.956;13.632;2023-02-15T08:44:14;16.42;;;9.32;;
34236;SDS011;20501;45.956;13.632;2023-02-15T08:46:41;15.68;;;9.77;;
34236;SDS011;20501;45.956;13.632;2023-02-15T08:49:08;20.55;;;10.68;;
34236;SDS011;20501;45.956;13.632;2023-02-15T08:51:37;22.17;;;11.43;;
34236;SDS011;20501;45.956;13.632;2023-02-15T08:54:05;19.70;;;10.10;;
34236;SDS011;20501;45.956;13.632;2023-02-15T08:56:33;20.17;;;9.70;;
34236;SDS011;20501;45.956;13.632;2023-02-15T08:59:00;23.88;;;11.93;;
34236;SDS011;20501;45.956;13.632;2023-02-15T09:01:27;24.65;;;12.35;;
34236;SDS011;20501;45.956;13.632;2023-02-15T09:03:56;19.67;;;10.38;;
34236;SDS011;20501;45.956;13.632;2023-02-15T09:06:26;30.30;;;12.15;;
34236;SDS011;20501;45.956;13.632;2023-02-15T09:08:52;29.38;;;13.55;;
34236;SDS011;20501;45.956;13.632;2023-02-15T09:11:20;19.48;;;10.38;;
34236;SDS011;20501;45.956;13.632;2023-02-15T09:14:04;17.30;;;10.40;;
34236;SDS011;20501;45.956;13.632;2023-02-15T09:16:33;19.27;;;9.90;;
34236;SDS011;20501;45.956;13.632;2023-02-15T09:19:00;25.92;;;12.65;;
34236;SDS011;20501;45.956;13.632;2023-02-15T09:21:26;18.52;;;10.80;;
34236;SDS011;20501;45.956;13.632;2023-02-15T09:23:55;20.90;;;12.63;;
34236;SDS011;20501;45.956;13.632;2023-02-15T09:26:24;24.63;;;13.23;;
34236;SDS011;20501;45.956;13.632;2023-02-15T09:28:52;22.23;;;11.85;;
34236;SDS011;20501;45.956;13.632;2023-02-15T09:31:21;19.45;;;10.18;;
34236;SDS011;20501;45.956;13.632;2023-02-15T09:33:49;23.75;;;10.77;;
34236;SDS011;20501;45.956;13.632;2023-02-15T09:36:34;25.45;;;10.48;;
34236;SDS011;20501;45.956;13.632;2023-02-15T09:44:21;20.85;;;9.35;;
34236;SDS011;20501;45.956;13.632;2023-02-15T09:52:36;17.27;;;8.88;;
34236;SDS011;20501;45.956;13.632;2023-02-15T10:03:04;17.55;;;10.23;;
34236;SDS011;20501;45.956;13.632;2023-02-15T10:10:49;16.08;;;9.60;;
34236;SDS011;20501;45.956;13.632;2023-02-15T10:15:59;22.65;;;11.43;;
34236;SDS011;20501;45.956;13.632;2023-02-15T10:26:46;20.98;;;10.27;;
34236;SDS011;20501;45.956;13.632;2023-02-15T10:31:54;17.67;;;10.52;;
34236;SDS011;20501;45.956;13.632;2023-02-15T10:34:43;16.48;;;9.73;;
34236;SDS011;20501;45.956;13.632;2023-02-15T10:40:19;20.95;;;10.60;;
34236;SDS011;20501;45.956;13.632;2023-02-15T11:04:07;19.35;;;9.82;;
34236;SDS011;20501;45.956;13.632;2023-02-15T11:06:49;18.67;;;9.43;;
34236;SDS011;20501;45.956;13.632;2023-02-15T11:09:19;17.08;;;10.38;;
34236;SDS011;20501;45.956;13.632;2023-02-15T11:11:51;15.85;;;9.70;;
34236;SDS011;20501;45.956;13.632;2023-02-15T11:17:09;16.95;;;7.63;;
34236;SDS011;20501;45.956;13.632;2023-02-15T11:19:50;15.10;;;7.38;;
34236;SDS011;20501;45.956;13.632;2023-02-15T11:22:21;18.15;;;10.00;;
34236;SDS011;20501;45.956;13.632;2023-02-15T11:24:47;14.20;;;8.57;;
34236;SDS011;20501;45.956;13.632;2023-02-15T11:27:20;10.97;;;7.00;;
34236;SDS011;20501;45.956;13.632;2023-02-15T11:29:57;16.42;;;9.20;;
34236;SDS011;20501;45.956;13.632;2023-02-15T11:32:39;14.23;;;8.25;;
34236;SDS011;20501;45.956;13.632;2023-02-15T11:37:48;13.55;;;7.95;;
34236;SDS011;20501;45.956;13.632;2023-02-15T11:42:45;16.90;;;7.97;;
34236;SDS011;20501;45.956;13.632;2023-02-15T11:47:46;15.05;;;7.22;;
34236;SDS011;20501;45.956;13.632;2023-02-15T11:50:15;17.05;;;7.72;;
34236;SDS011;20501;45.956;13.632;2023-02-15T11:52:47;16.95;;;8.98;;
34236;SDS011;20501;45.956;13.632;2023-02-15T11:55:13;13.95;;;7.63;;
34236;SDS011;20501;45.956;13.632;2023-02-15T11:57:43;13.93;;;8.30;;
34236;SDS011;20501;45.956;13.632;2023-02-15T12:00:31;12.77;;;7.93;;
34236;SDS011;20501;45.956;13.632;2023-02-15T12:03:02;14.73;;;6.80;;
34236;SDS011;20501;45.956;13.632;2023-02-15T12:05:34;13.90;;;6.93;;
34236;SDS011;20501;45.956;13.632;2023-02-15T12:08:09;12.32;;;7.45;;
34236;SDS011;20501;45.956;13.632;2023-02-15T12:10:42;9.93;;;6.35;;
34236;SDS011;20501;45.956;13.632;2023-02-15T12:13:27;10.20;;;6.55;;
34236;SDS011;20501;45.956;13.632;2023-02-15T12:15:56;10.02;;;6.80;;
34236;SDS011;20501;45.956;13.632;2023-02-15T12:20:51;11.43;;;6.07;;
34236;SDS011;20501;45.956;13.632;2023-02-15T12:23:17;18.70;;;8.93;;
34236;SDS011;20501;45.956;13.632;2023-02-15T12:25:54;15.18;;;9.82;;
34236;SDS011;20501;45.956;13.632;2023-02-15T12:28:34;10.52;;;6.32;;
34236;SDS011;20501;45.956;13.632;2023-02-15T12:31:07;11.57;;;5.95;;
34236;SDS011;20501;45.956;13.632;2023-02-15T12:33:53;9.48;;;6.05;;
34236;SDS011;20501;45.956;13.632;2023-02-15T12:36:27;9.57;;;5.95;;
34236;SDS011;20501;45.956;13.632;2023-02-15T12:41:43;9.50;;;4.80;;
34236;SDS011;20501;45.956;13.632;2023-02-15T12:44:21;7.95;;;5.25;;
34236;SDS011;20501;45.956;13.632;2023-02-15T12:47:01;8.52;;;5.18;;
34236;SDS011;20501;45.956;13.632;2023-02-15T12:49:32;8.15;;;5.15;;
34236;SDS011;20501;45.956;13.632;2023-02-15T12:52:00;8.90;;;5.15;;
34236;SDS011;20501;45.956;13.632;2023-02-15T12:56:53;10.60;;;5.57;;
34236;SDS011;20501;45.956;13.632;2023-02-15T12:59:18;8.63;;;4.80;;
34236;SDS011;20501;45.956;13.632;2023-02-15T13:01:47;8.50;;;4.78;;
34236;SDS011;20501;45.956;13.632;2023-02-15T13:04:26;11.60;;;4.70;;
34236;SDS011;20501;45.956;13.632;2023-02-15T13:06:57;9.65;;;4.57;;
34236;SDS011;20501;45.956;13.632;2023-02-15T13:12:09;9.93;;;4.90;;
34236;SDS011;20501;45.956;13.632;2023-02-15T13:14:43;9.18;;;4.45;;
34236;SDS011;20501;45.956;13.632;2023-02-15T13:17:10;11.00;;;6.72;;
34236;SDS011;20501;45.956;13.632;2023-02-15T13:19:52;6.70;;;4.38;;
34236;SDS011;20501;45.956;13.632;2023-02-15T13:22:20;6.40;;;4.28;;
34236;SDS011;20501;45.956;13.632;2023-02-15T13:24:59;8.15;;;4.90;;
34236;SDS011;20501;45.956;13.632;2023-02-15T13:27:34;7.70;;;4.90;;
34236;SDS011;20501;45.956;13.632;2023-02-15T13:30:03;6.22;;;4.18;;
34236;SDS011;20501;45.956;13.632;2023-02-15T13:32:43;6.60;;;4.57;;
34236;SDS011;20501;45.956;13.632;2023-02-15T13:35:14;9.27;;;4.78;;
34236;SDS011;20501;45.956;13.632;2023-02-15T13:40:13;13.52;;;5.45;;
34236;SDS011;20501;45.956;13.632;2023-02-15T13:48:00;11.10;;;6.20;;
34236;SDS011;20501;45.956;13.632;2023-02-15T13:50:44;12.45;;;6.93;;
34236;SDS011;20501;45.956;13.632;2023-02-15T14:09:43;17.48;;;8.15;;
34236;SDS011;20501;45.956;13.632;2023-02-15T14:15:12;21.27;;;9.05;;
34236;SDS011;20501;45.956;13.632;2023-02-15T14:20:22;13.93;;;7.95;;
34236;SDS011;20501;45.956;13.632;2023-02-15T14:31:46;17.05;;;9.82;;
34236;SDS011;20501;45.956;13.632;2023-02-15T14:34:24;24.50;;;11.93;;
34236;SDS011;20501;45.956;13.632;2023-02-15T14:36:55;33.15;;;14.48;;
34236;SDS011;20501;45.956;13.632;2023-02-15T14:45:20;27.17;;;13.48;;
34236;SDS011;20501;45.956;13.632;2023-02-15T14:51:02;23.98;;;12.35;;
34236;SDS011;20501;45.956;13.632;2023-02-15T14:53:40;29.50;;;15.15;;
34236;SDS011;20501;45.956;13.632;2023-02-15T14:58:38;20.85;;;12.32;;
34236;SDS011;20501;45.956;13.632;2023-02-15T15:01:27;23.70;;;13.18;;
34236;SDS011;20501;45.956;13.632;2023-02-15T15:04:03;24.80;;;12.95;;
34236;SDS011;20501;45.956;13.632;2023-02-15T15:06:34;22.77;;;14.10;;
34236;SDS011;20501;45.956;13.632;2023-02-15T15:09:22;30.13;;;14.05;;
34236;SDS011;20501;45.956;13.632;2023-02-15T15:11:52;28.98;;;15.20;;
34236;SDS011;20501;45.956;13.632;2023-02-15T15:14:37;66.68;;;14.32;;
34236;SDS011;20501;45.956;13.632;2023-02-15T15:17:04;30.90;;;13.65;;
34236;SDS011;20501;45.956;13.632;2023-02-15T15:22:16;33.28;;;12.38;;
34236;SDS011;20501;45.956;13.632;2023-02-15T15:24:51;42.47;;;20.92;;
34236;SDS011;20501;45.956;13.632;2023-02-15T15:30:01;26.77;;;13.20;;
34236;SDS011;20501;45.956;13.632;2023-02-15T15:32:31;21.63;;;12.93;;
34236;SDS011;20501;45.956;13.632;2023-02-15T15:49:59;34.50;;;16.38;;
34236;SDS011;20501;45.956;13.632;2023-02-15T15:52:26;35.05;;;17.42;;
34236;SDS011;20501;45.956;13.632;2023-02-15T15:54:57;35.30;;;16.05;;
34236;SDS011;20501;45.956;13.632;2023-02-15T15:57:29;32.03;;;13.27;;
34236;SDS011;20501;45.956;13.632;2023-02-15T15:59:58;37.65;;;17.05;;
34236;SDS011;20501;45.956;13.632;2023-02-15T16:02:26;50.30;;;22.42;;
34236;SDS011;20501;45.956;13.632;2023-02-15T16:04:52;42.40;;;21.17;;
34236;SDS011;20501;45.956;13.632;2023-02-15T16:10:02;30.75;;;15.60;;
34236;SDS011;20501;45.956;13.632;2023-02-15T16:12:30;50.42;;;24.80;;
34236;SDS011;20501;45.956;13.632;2023-02-15T16:15:00;23.92;;;13.30;;
34236;SDS011;20501;45.956;13.632;2023-02-15T16:17:30;52.15;;;22.92;;
34236;SDS011;20501;45.956;13.632;2023-02-15T16:20:01;38.83;;;19.25;;
34236;SDS011;20501;45.956;13.632;2023-02-15T16:22:30;47.05;;;22.25;;
34236;SDS011;20501;45.956;13.632;2023-02-15T16:27:51;46.05;;;22.95;;
34236;SDS011;20501;45.956;13.632;2023-02-15T16:35:38;37.95;;;17.60;;
34236;SDS011;20501;45.956;13.632;2023-02-15T16:41:06;62.35;;;27.10;;
34236;SDS011;20501;45.956;13.632;2023-02-15T16:43:32;56.33;;;26.60;;
34236;SDS011;20501;45.956;13.632;2023-02-15T16:46:08;27.10;;;12.80;;
34236;SDS011;20501;45.956;13.632;2023-02-15T16:48:40;33.00;;;16.63;;
34236;SDS011;20501;45.956;13.632;2023-02-15T16:51:08;58.38;;;27.30;;
34236;SDS011;20501;45.956;13.632;2023-02-15T16:53:34;46.45;;;24.58;;
34236;SDS011;20501;45.956;13.632;2023-02-15T16:56:02;27.80;;;14.15;;
34236;SDS011;20501;45.956;13.632;2023-02-15T16:58:31;64.15;;;31.30;;
34236;SDS011;20501;45.956;13.632;2023-02-15T17:01:07;64.88;;;29.92;;
34236;SDS011;20501;45.956;13.632;2023-02-15T17:03:36;62.20;;;28.10;;
34236;SDS011;20501;45.956;13.632;2023-02-15T17:06:03;54.17;;;24.75;;
34236;SDS011;20501;45.956;13.632;2023-02-15T17:08:51;32.08;;;15.98;;
34236;SDS011;20501;45.956;13.632;2023-02-15T17:11:21;33.77;;;16.63;;
34236;SDS011;20501;45.956;13.632;2023-02-15T17:16:31;49.30;;;21.92;;
34236;SDS011;20501;45.956;13.632;2023-02-15T17:18:59;30.48;;;16.05;;
34236;SDS011;20501;45.956;13.632;2023-02-15T17:21:30;32.13;;;16.45;;
34236;SDS011;20501;45.956;13.632;2023-02-15T17:23:59;31.10;;;16.75;;
34236;SDS011;20501;45.956;13.632;2023-02-15T17:26:38;35.70;;;17.90;;
34236;SDS011;20501;45.956;13.632;2023-02-15T17:32:12;44.20;;;20.67;;
34236;SDS011;20501;45.956;13.632;2023-02-15T17:34:49;36.05;;;17.50;;
34236;SDS011;20501;45.956;13.632;2023-02-15T17:37:31;33.30;;;18.92;;
34236;SDS011;20501;45.956;13.632;2023-02-15T17:42:46;36.97;;;19.70;;
34236;SDS011;20501;45.956;13.632;2023-02-15T17:45:12;39.22;;;20.15;;
34236;SDS011;20501;45.956;13.632;2023-02-15T17:47:38;36.97;;;20.55;;
34236;SDS011;20501;45.956;13.632;2023-02-15T17:50:05;44.65;;;20.80;;
34236;SDS011;20501;45.956;13.632;2023-02-15T17:54:58;50.78;;;24.75;;
34236;SDS011;20501;45.956;13.632;2023-02-15T17:57:43;54.25;;;23.80;;
34236;SDS011;20501;45.956;13.632;2023-02-15T18:00:12;34.13;;;19.63;;
34236;SDS011;20501;45.956;13.632;2023-02-15T18:02:57;46.72;;;23.85;;
34236;SDS011;20501;45.956;13.632;2023-02-15T18:05:41;33.90;;;19.40;;